createdAt,value
2016-09-18T00:00:25.414Z,1010.24
2016-09-18T00:01:06.064Z,1010.25
2016-09-18T00:01:46.726Z,1010.25
2016-09-18T00:02:27.419Z,1010.27
2016-09-18T00:03:08.155Z,1010.22
2016-09-18T00:03:48.863Z,1010.25
2016-09-18T00:04:29.603Z,1010.25
2016-09-18T00:05:10.308Z,1010.27
2016-09-18T00:05:50.933Z,1010.27
2016-09-18T00:06:31.608Z,1010.28
2016-09-18T00:07:12.295Z,1010.26
2016-09-18T00:07:52.957Z,1010.28
2016-09-18T00:08:33.629Z,1010.23
2016-09-18T00:09:14.308Z,1010.24
2016-09-18T00:09:54.959Z,1010.27
2016-09-18T00:10:35.649Z,1010.22
2016-09-18T00:11:16.328Z,1010.23
2016-09-18T00:11:57.044Z,1010.22
2016-09-18T00:12:37.729Z,1010.24
2016-09-18T00:13:18.394Z,1010.23
2016-09-18T00:13:59.037Z,1010.2
2016-09-18T00:14:39.741Z,1010.17
2016-09-18T00:15:20.434Z,1010.19
2016-09-18T00:16:01.081Z,1010.23
2016-09-18T00:16:41.736Z,1010.22
2016-09-18T00:17:22.418Z,1010.21
2016-09-18T00:18:03.102Z,1010.2
2016-09-18T00:18:43.781Z,1010.2
2016-09-18T00:19:24.474Z,1010.21
2016-09-18T00:20:05.127Z,1010.19
2016-09-18T00:20:45.814Z,1010.18
2016-09-18T00:21:26.492Z,1010.2
2016-09-18T00:22:07.208Z,1010.23
2016-09-18T00:22:47.844Z,1010.2
2016-09-18T00:23:28.478Z,1010.18
2016-09-18T00:24:09.151Z,1010.17
2016-09-18T00:24:49.857Z,1010.19
2016-09-18T00:25:30.543Z,1010.14
2016-09-18T00:26:11.228Z,1010.18
2016-09-18T00:26:51.914Z,1010.22
2016-09-18T00:27:32.606Z,1010.24
2016-09-18T00:28:13.318Z,1010.26
2016-09-18T00:28:53.997Z,1010.25
2016-09-18T00:29:34.674Z,1010.26
2016-09-18T00:30:15.330Z,1010.24
2016-09-18T00:30:55.991Z,1010.27
2016-09-18T00:31:36.687Z,1010.26
2016-09-18T00:32:17.342Z,1010.24
2016-09-18T00:32:57.980Z,1010.22
2016-09-18T00:33:38.685Z,1010.25
2016-09-18T00:34:19.348Z,1010.25
2016-09-18T00:35:00.026Z,1010.22
2016-09-18T00:35:40.682Z,1010.2
2016-09-18T00:36:21.373Z,1010.15
2016-09-18T00:37:02.016Z,1010.19
2016-09-18T00:37:42.717Z,1010.16
2016-09-18T00:38:23.406Z,1010.2
2016-09-18T00:39:04.072Z,1010.16
2016-09-18T00:39:44.753Z,1010.18
2016-09-18T00:40:25.435Z,1010.17
2016-09-18T00:41:06.116Z,1010.12
2016-09-18T00:41:46.810Z,1010.13
2016-09-18T00:42:27.530Z,1010.14
2016-09-18T00:43:08.237Z,1010.12
2016-09-18T00:43:48.953Z,1010.13
2016-09-18T00:44:29.626Z,1010.09
2016-09-18T00:45:10.290Z,1010.15
2016-09-18T00:45:50.936Z,1010.1
2016-09-18T00:46:31.645Z,1010.1
2016-09-18T00:47:12.312Z,1010.13
2016-09-18T00:47:52.968Z,1010.09
2016-09-18T00:48:33.642Z,1010.12
2016-09-18T00:49:14.324Z,1010.08
2016-09-18T00:49:54.985Z,1010.06
2016-09-18T00:50:35.709Z,1010.1
2016-09-18T00:51:16.389Z,1010.06
2016-09-18T00:51:57.033Z,1010.11
2016-09-18T00:52:37.742Z,1010.07
2016-09-18T00:53:18.412Z,1010.09
2016-09-18T00:53:59.110Z,1010.11
2016-09-18T00:54:39.829Z,1010.09
2016-09-18T00:55:20.484Z,1010.11
2016-09-18T00:56:01.160Z,1010.13
2016-09-18T00:56:41.861Z,1010.11
2016-09-18T00:57:22.558Z,1010.12
2016-09-18T00:58:03.268Z,1010.15
2016-09-18T00:58:43.938Z,1010.11
2016-09-18T00:59:24.608Z,1010.14
2016-09-18T01:00:05.297Z,1010.13
2016-09-18T01:00:45.945Z,1010.14
2016-09-18T01:01:26.578Z,1010.16
2016-09-18T01:02:07.289Z,1010.21
2016-09-18T01:02:47.956Z,1010.2
2016-09-18T01:03:28.607Z,1010.2
2016-09-18T01:04:09.345Z,1010.19
2016-09-18T01:04:49.993Z,1010.17
2016-09-18T01:05:30.727Z,1010.13
2016-09-18T01:06:11.348Z,1010.18
2016-09-18T01:06:52.003Z,1010.16
2016-09-18T01:07:32.713Z,1010.16
2016-09-18T01:08:13.434Z,1010.16
2016-09-18T01:08:54.144Z,1010.16
2016-09-18T01:09:34.798Z,1010.13
2016-09-18T01:10:15.496Z,1010.12
2016-09-18T01:10:56.163Z,1010.12
2016-09-18T01:11:36.889Z,1010.12
2016-09-18T01:12:17.581Z,1010.12
2016-09-18T01:12:58.266Z,1010.13
2016-09-18T01:13:38.943Z,1010.11
2016-09-18T01:14:19.617Z,1010.12
2016-09-18T01:15:00.298Z,1010.14
2016-09-18T01:15:40.975Z,1010.14
2016-09-18T01:16:21.693Z,1010.11
2016-09-18T01:17:02.392Z,1010.11
2016-09-18T01:17:43.095Z,1010.09
2016-09-18T01:18:23.736Z,1010.1
2016-09-18T01:19:04.419Z,1010.06
2016-09-18T01:19:45.093Z,1010.05
2016-09-18T01:20:25.732Z,1010.08
2016-09-18T01:21:06.446Z,1010.06
2016-09-18T01:21:47.166Z,1010.09
2016-09-18T01:22:27.861Z,1010.14
2016-09-18T01:23:08.545Z,1010.11
2016-09-18T01:23:49.200Z,1010.1
2016-09-18T01:24:29.917Z,1010.1
2016-09-18T01:25:10.596Z,1010.03
2016-09-18T01:25:51.267Z,1010.05
2016-09-18T01:26:32.011Z,1010.03
2016-09-18T01:27:12.701Z,1010.02
2016-09-18T01:27:53.370Z,1010
2016-09-18T01:28:34.016Z,1009.97
2016-09-18T01:29:14.657Z,1009.99
2016-09-18T01:29:55.335Z,1010.02
2016-09-18T01:30:36.054Z,1009.99
2016-09-18T01:31:16.697Z,1009.96
2016-09-18T01:31:57.375Z,1009.96
2016-09-18T01:32:38.052Z,1009.92
2016-09-18T01:33:18.763Z,1009.94
2016-09-18T01:33:59.497Z,1009.96
2016-09-18T01:34:40.144Z,1009.94
2016-09-18T01:35:20.841Z,1009.91
2016-09-18T01:36:01.536Z,1009.93
2016-09-18T01:36:42.263Z,1009.89
2016-09-18T01:37:22.995Z,1009.87
2016-09-18T01:38:03.645Z,1009.87
2016-09-18T01:38:44.309Z,1009.82
2016-09-18T01:39:24.970Z,1009.83
2016-09-18T01:40:05.672Z,1009.84
2016-09-18T01:40:46.372Z,1009.84
2016-09-18T01:41:27.049Z,1009.83
2016-09-18T01:42:07.791Z,1009.87
2016-09-18T01:42:48.459Z,1009.82
2016-09-18T01:43:29.149Z,1009.8
2016-09-18T01:44:09.845Z,1009.82
2016-09-18T01:44:50.529Z,1009.77
2016-09-18T01:45:31.177Z,1009.76
2016-09-18T01:46:11.862Z,1009.82
2016-09-18T01:46:52.568Z,1009.79
2016-09-18T01:47:33.226Z,1009.79
2016-09-18T01:48:13.987Z,1009.74
2016-09-18T01:48:54.679Z,1009.75
2016-09-18T01:49:35.376Z,1009.75
2016-09-18T01:50:16.031Z,1009.77
2016-09-18T01:50:56.707Z,1009.73
2016-09-18T01:51:37.379Z,1009.71
2016-09-18T01:52:18.098Z,1009.73
2016-09-18T01:52:58.726Z,1009.73
2016-09-18T01:53:39.409Z,1009.68
2016-09-18T01:54:20.089Z,1009.68
2016-09-18T01:55:00.815Z,1009.66
2016-09-18T01:55:41.474Z,1009.65
2016-09-18T01:56:22.156Z,1009.64
2016-09-18T01:57:02.856Z,1009.59
2016-09-18T01:57:43.542Z,1009.64
2016-09-18T01:58:24.253Z,1009.6
2016-09-18T01:59:04.950Z,1009.62
2016-09-18T01:59:45.625Z,1009.61
2016-09-18T02:00:26.327Z,1009.56
2016-09-18T02:01:07.035Z,1009.58
2016-09-18T02:01:47.756Z,1009.56
2016-09-18T02:02:28.413Z,1009.57
2016-09-18T02:03:09.070Z,1009.53
2016-09-18T02:03:49.718Z,1009.53
2016-09-18T02:04:30.421Z,1009.55
2016-09-18T02:05:11.116Z,1009.51
2016-09-18T02:05:51.806Z,1009.52
2016-09-18T02:06:32.493Z,1009.53
2016-09-18T02:07:13.179Z,1009.57
2016-09-18T02:07:53.876Z,1009.55
2016-09-18T02:08:34.556Z,1009.54
2016-09-18T02:09:15.204Z,1009.5
2016-09-18T02:09:55.865Z,1009.5
2016-09-18T02:10:36.539Z,1009.48
2016-09-18T02:11:17.208Z,1009.5
2016-09-18T02:11:57.893Z,1009.48
2016-09-18T02:12:38.550Z,1009.53
2016-09-18T02:13:19.261Z,1009.5
2016-09-18T02:13:59.981Z,1009.51
2016-09-18T02:14:40.662Z,1009.56
2016-09-18T02:15:21.343Z,1009.56
2016-09-18T02:16:01.979Z,1009.56
2016-09-18T02:16:42.645Z,1009.51
2016-09-18T02:17:23.326Z,1009.52
2016-09-18T02:18:03.986Z,1009.49
2016-09-18T02:18:44.696Z,1009.52
2016-09-18T02:19:25.361Z,1009.48
2016-09-18T02:20:06.085Z,1009.5
2016-09-18T02:20:46.764Z,1009.46
2016-09-18T02:21:27.422Z,1009.51
2016-09-18T02:22:08.106Z,1009.46
2016-09-18T02:22:48.813Z,1009.46
2016-09-18T02:23:29.535Z,1009.47
2016-09-18T02:24:10.229Z,1009.48
2016-09-18T02:24:50.874Z,1009.45
2016-09-18T02:25:31.569Z,1009.41
2016-09-18T02:26:12.229Z,1009.42
2016-09-18T02:26:52.896Z,1009.39
2016-09-18T02:27:33.605Z,1009.39
2016-09-18T02:28:14.307Z,1009.43
2016-09-18T02:28:55.017Z,1009.37
2016-09-18T02:29:35.702Z,1009.35
2016-09-18T02:30:16.383Z,1009.38
2016-09-18T02:30:57.066Z,1009.4
2016-09-18T02:31:37.751Z,1009.39
2016-09-18T02:32:18.464Z,1009.36
2016-09-18T02:32:59.157Z,1009.36
2016-09-18T02:33:39.794Z,1009.36
2016-09-18T02:34:20.484Z,1009.38
2016-09-18T02:35:01.169Z,1009.38
2016-09-18T02:35:41.852Z,1009.37
2016-09-18T02:36:22.560Z,1009.36
2016-09-18T02:37:03.225Z,1009.35
2016-09-18T02:37:43.840Z,1009.32
2016-09-18T02:38:24.531Z,1009.35
2016-09-18T02:39:05.188Z,1009.32
2016-09-18T02:39:45.873Z,1009.33
2016-09-18T02:40:26.563Z,1009.38
2016-09-18T02:41:07.224Z,1009.36
2016-09-18T02:41:47.919Z,1009.36
2016-09-18T02:42:28.601Z,1009.36
2016-09-18T02:43:09.309Z,1009.42
2016-09-18T02:43:50.010Z,1009.39
2016-09-18T02:44:30.683Z,1009.39
2016-09-18T02:45:11.337Z,1009.39
2016-09-18T02:45:52.005Z,1009.37
2016-09-18T02:46:32.732Z,1009.33
2016-09-18T02:47:13.390Z,1009.36
2016-09-18T02:47:54.031Z,1009.37
2016-09-18T02:48:34.747Z,1009.34
2016-09-18T02:49:15.417Z,1009.33
2016-09-18T02:49:56.121Z,1009.35
2016-09-18T02:50:36.801Z,1009.4
2016-09-18T02:51:17.540Z,1009.36
2016-09-18T02:51:58.193Z,1009.37
2016-09-18T02:52:38.825Z,1009.37
2016-09-18T02:53:19.544Z,1009.37
2016-09-18T02:54:00.209Z,1009.37
2016-09-18T02:54:40.925Z,1009.4
2016-09-18T02:55:21.619Z,1009.37
2016-09-18T02:56:02.336Z,1009.39
2016-09-18T02:56:42.968Z,1009.35
2016-09-18T02:57:23.674Z,1009.39
2016-09-18T02:58:04.379Z,1009.39
2016-09-18T02:58:45.083Z,1009.37
2016-09-18T02:59:25.732Z,1009.32
2016-09-18T03:00:06.446Z,1009.31
2016-09-18T03:00:47.130Z,1009.27
2016-09-18T03:01:27.798Z,1009.28
2016-09-18T03:02:08.466Z,1009.28
2016-09-18T03:02:49.188Z,1009.29
2016-09-18T03:03:29.879Z,1009.22
2016-09-18T03:04:10.589Z,1009.26
2016-09-18T03:04:51.284Z,1009.25
2016-09-18T03:05:31.952Z,1009.25
2016-09-18T03:06:12.647Z,1009.25
2016-09-18T03:06:53.379Z,1009.26
2016-09-18T03:07:34.087Z,1009.22
2016-09-18T03:08:14.806Z,1009.2
2016-09-18T03:08:55.479Z,1009.2
2016-09-18T03:09:36.197Z,1009.2
2016-09-18T03:10:16.875Z,1009.21
2016-09-18T03:10:57.522Z,1009.19
2016-09-18T03:11:38.232Z,1009.17
2016-09-18T03:12:18.895Z,1009.17
2016-09-18T03:12:59.591Z,1009.16
2016-09-18T03:13:40.269Z,1009.15
2016-09-18T03:14:20.909Z,1009.17
2016-09-18T03:15:01.594Z,1009.13
2016-09-18T03:15:42.254Z,1009.14
2016-09-18T03:16:22.962Z,1009.12
2016-09-18T03:17:03.640Z,1009.12
2016-09-18T03:17:44.319Z,1009.12
2016-09-18T03:18:25.019Z,1009.13
2016-09-18T03:19:05.740Z,1009.1
2016-09-18T03:19:46.372Z,1009.1
2016-09-18T03:20:27.096Z,1009.13
2016-09-18T03:21:07.791Z,1009.09
2016-09-18T03:21:48.489Z,1009.1
2016-09-18T03:22:29.160Z,1009.11
2016-09-18T03:23:09.830Z,1009.1
2016-09-18T03:23:50.508Z,1009.1
2016-09-18T03:24:31.230Z,1009.04
2016-09-18T03:25:11.896Z,1009.03
2016-09-18T03:25:52.569Z,1009.02
2016-09-18T03:26:33.271Z,1009.03
2016-09-18T03:27:13.950Z,1008.99
2016-09-18T03:27:54.652Z,1009.01
2016-09-18T03:28:35.332Z,1009.04
2016-09-18T03:29:16.005Z,1009.02
2016-09-18T03:29:56.723Z,1009
2016-09-18T03:30:37.377Z,1009.01
2016-09-18T03:31:18.078Z,1008.99
2016-09-18T03:31:58.725Z,1008.97
2016-09-18T03:32:39.384Z,1009
2016-09-18T03:33:20.023Z,1009.01
2016-09-18T03:34:00.696Z,1009.01
2016-09-18T03:34:41.367Z,1008.99
2016-09-18T03:35:22.007Z,1008.99
2016-09-18T03:36:02.719Z,1009.01
2016-09-18T03:36:43.364Z,1008.99
2016-09-18T03:37:24.048Z,1009
2016-09-18T03:38:04.699Z,1008.98
2016-09-18T03:38:45.417Z,1008.97
2016-09-18T03:39:26.099Z,1008.96
2016-09-18T03:40:06.810Z,1008.95
2016-09-18T03:40:47.487Z,1008.98
2016-09-18T03:41:28.176Z,1008.96
2016-09-18T03:42:08.804Z,1009.01
2016-09-18T03:42:49.539Z,1008.99
2016-09-18T03:43:30.236Z,1008.97
2016-09-18T03:44:10.921Z,1008.94
2016-09-18T03:44:51.626Z,1008.97
2016-09-18T03:45:32.303Z,1008.94
2016-09-18T03:46:12.955Z,1008.96
2016-09-18T03:46:53.624Z,1008.97
2016-09-18T03:47:34.258Z,1008.99
2016-09-18T03:48:14.956Z,1008.95
2016-09-18T03:48:55.677Z,1008.97
2016-09-18T03:49:36.382Z,1008.96
2016-09-18T03:50:17.075Z,1008.91
2016-09-18T03:50:57.779Z,1008.91
2016-09-18T03:51:38.482Z,1008.85
2016-09-18T03:52:19.181Z,1008.87
2016-09-18T03:52:59.894Z,1008.87
2016-09-18T03:53:40.566Z,1008.87
2016-09-18T03:54:21.237Z,1008.85
2016-09-18T03:55:01.976Z,1008.86
2016-09-18T03:55:42.656Z,1008.84
2016-09-18T03:56:23.345Z,1008.85
2016-09-18T03:57:04.045Z,1008.8
2016-09-18T03:57:44.722Z,1008.79
2016-09-18T03:58:25.413Z,1008.77
2016-09-18T03:59:06.049Z,1008.7
2016-09-18T03:59:46.763Z,1008.74
2016-09-18T04:00:27.433Z,1008.71
2016-09-18T04:01:08.097Z,1008.7
2016-09-18T04:01:48.789Z,1008.66
2016-09-18T04:02:29.446Z,1008.67
2016-09-18T04:03:10.089Z,1008.66
2016-09-18T04:03:50.756Z,1008.66
2016-09-18T04:04:31.415Z,1008.66
2016-09-18T04:05:12.103Z,1008.66
2016-09-18T04:05:52.846Z,1008.65
2016-09-18T04:06:33.565Z,1008.64
2016-09-18T04:07:14.246Z,1008.65
2016-09-18T04:07:54.875Z,1008.63
2016-09-18T04:08:35.570Z,1008.61
2016-09-18T04:09:16.252Z,1008.64
2016-09-18T04:09:56.899Z,1008.62
2016-09-18T04:10:37.577Z,1008.65
2016-09-18T04:11:18.290Z,1008.63
2016-09-18T04:11:58.923Z,1008.66
2016-09-18T04:12:39.594Z,1008.68
2016-09-18T04:13:20.317Z,1008.7
2016-09-18T04:14:00.992Z,1008.67
2016-09-18T04:14:41.735Z,1008.67
2016-09-18T04:15:22.371Z,1008.7
2016-09-18T04:16:03.064Z,1008.73
2016-09-18T04:16:43.715Z,1008.7
2016-09-18T04:17:24.377Z,1008.74
2016-09-18T04:18:05.101Z,1008.76
2016-09-18T04:18:45.721Z,1008.77
2016-09-18T04:19:26.353Z,1008.74
2016-09-18T04:20:07.050Z,1008.76
2016-09-18T04:20:47.711Z,1008.79
2016-09-18T04:21:28.391Z,1008.81
2016-09-18T04:22:09.061Z,1008.81
2016-09-18T04:22:49.778Z,1008.82
2016-09-18T04:23:30.494Z,1008.8
2016-09-18T04:24:11.154Z,1008.85
2016-09-18T04:24:51.855Z,1008.84
2016-09-18T04:25:32.543Z,1008.83
2016-09-18T04:26:13.224Z,1008.8
2016-09-18T04:26:53.881Z,1008.82
2016-09-18T04:27:34.595Z,1008.84
2016-09-18T04:28:15.294Z,1008.86
2016-09-18T04:28:55.957Z,1008.81
2016-09-18T04:29:36.635Z,1008.82
2016-09-18T04:30:17.334Z,1008.82
2016-09-18T04:30:57.997Z,1008.79
2016-09-18T04:31:38.688Z,1008.8
2016-09-18T04:32:19.378Z,1008.83
2016-09-18T04:33:00.059Z,1008.83
2016-09-18T04:33:40.710Z,1008.85
2016-09-18T04:34:21.377Z,1008.84
2016-09-18T04:35:02.107Z,1008.83
2016-09-18T04:35:42.745Z,1008.85
2016-09-18T04:36:23.428Z,1008.81
2016-09-18T04:37:04.112Z,1008.81
2016-09-18T04:37:44.756Z,1008.8
2016-09-18T04:38:25.484Z,1008.82
2016-09-18T04:39:06.149Z,1008.81
2016-09-18T04:39:46.812Z,1008.84
2016-09-18T04:40:27.486Z,1008.85
2016-09-18T04:41:08.172Z,1008.85
2016-09-18T04:41:48.868Z,1008.84
2016-09-18T04:42:29.514Z,1008.81
2016-09-18T04:43:10.233Z,1008.86
2016-09-18T04:43:50.881Z,1008.85
2016-09-18T04:44:31.561Z,1008.87
2016-09-18T04:45:12.187Z,1008.85
2016-09-18T04:45:52.896Z,1008.85
2016-09-18T04:46:33.591Z,1008.83
2016-09-18T04:47:14.243Z,1008.86
2016-09-18T04:47:54.924Z,1008.89
2016-09-18T04:48:35.621Z,1008.92
2016-09-18T04:49:16.330Z,1008.92
2016-09-18T04:49:57.000Z,1008.9
2016-09-18T04:50:37.732Z,1008.96
2016-09-18T04:51:18.425Z,1008.93
2016-09-18T04:51:59.142Z,1008.96
2016-09-18T04:52:39.841Z,1008.92
2016-09-18T04:53:20.513Z,1008.91
2016-09-18T04:54:01.192Z,1008.93
2016-09-18T04:54:41.829Z,1008.94
2016-09-18T04:55:22.510Z,1008.93
2016-09-18T04:56:03.215Z,1008.95
2016-09-18T04:56:43.871Z,1008.89
2016-09-18T04:57:24.588Z,1008.94
2016-09-18T04:58:05.311Z,1008.92
2016-09-18T04:58:45.984Z,1008.92
2016-09-18T04:59:26.641Z,1008.96
2016-09-18T05:00:07.299Z,1008.94
2016-09-18T05:00:47.979Z,1008.98
2016-09-18T05:01:28.657Z,1008.98
2016-09-18T05:02:09.299Z,1008.96
2016-09-18T05:02:50.017Z,1008.99
2016-09-18T05:03:30.693Z,1008.95
2016-09-18T05:04:11.383Z,1008.96
2016-09-18T05:04:52.055Z,1008.94
2016-09-18T05:05:32.772Z,1008.94
2016-09-18T05:06:13.448Z,1008.91
2016-09-18T05:06:54.127Z,1008.95
2016-09-18T05:07:34.858Z,1008.96
2016-09-18T05:08:15.521Z,1008.98
2016-09-18T05:08:56.252Z,1008.99
2016-09-18T05:09:36.922Z,1009
2016-09-18T05:10:17.622Z,1008.99
2016-09-18T05:10:58.257Z,1009.01
2016-09-18T05:11:38.970Z,1009.01
2016-09-18T05:12:19.654Z,1009.05
2016-09-18T05:13:00.339Z,1009.04
2016-09-18T05:13:41.031Z,1009.04
2016-09-18T05:14:21.664Z,1009.05
2016-09-18T05:15:02.356Z,1009.01
2016-09-18T05:15:43.006Z,1009.01
2016-09-18T05:16:23.701Z,1009.03
2016-09-18T05:17:04.391Z,1009.09
2016-09-18T05:17:45.031Z,1009.1
2016-09-18T05:18:25.695Z,1009.1
2016-09-18T05:19:06.397Z,1009.11
2016-09-18T05:19:47.064Z,1009.09
2016-09-18T05:20:27.747Z,1009.07
2016-09-18T05:21:08.447Z,1009.08
2016-09-18T05:21:49.115Z,1009.07
2016-09-18T05:22:29.803Z,1009.1
2016-09-18T05:23:10.529Z,1009.13
2016-09-18T05:23:51.226Z,1009.1
2016-09-18T05:24:31.913Z,1009.11
2016-09-18T05:25:12.586Z,1009.08
2016-09-18T05:25:53.262Z,1009.1
2016-09-18T05:26:33.953Z,1009.09
2016-09-18T05:27:14.599Z,1009.06
2016-09-18T05:27:55.301Z,1009.05
2016-09-18T05:28:35.978Z,1009.08
2016-09-18T05:29:16.684Z,1009.04
2016-09-18T05:29:57.361Z,1009.06
2016-09-18T05:30:38.049Z,1009.07
2016-09-18T05:31:18.720Z,1009.1
2016-09-18T05:31:59.454Z,1009.07
2016-09-18T05:32:40.148Z,1009.07
2016-09-18T05:33:20.786Z,1009.02
2016-09-18T05:34:01.501Z,1009.03
2016-09-18T05:34:42.227Z,1009.05
2016-09-18T05:35:22.864Z,1009.04
2016-09-18T05:36:03.546Z,1009
2016-09-18T05:36:44.227Z,1009.08
2016-09-18T05:37:24.908Z,1009.07
2016-09-18T05:38:05.565Z,1009.06
2016-09-18T05:38:46.231Z,1009.08
2016-09-18T05:39:26.944Z,1009.06
2016-09-18T05:40:07.595Z,1009.12
2016-09-18T05:40:48.280Z,1009.11
2016-09-18T05:41:28.932Z,1009.09
2016-09-18T05:42:09.568Z,1009.07
2016-09-18T05:42:50.262Z,1009.11
2016-09-18T05:43:30.883Z,1009.14
2016-09-18T05:44:11.551Z,1009.14
2016-09-18T05:44:52.213Z,1009.11
2016-09-18T05:45:32.902Z,1009.11
2016-09-18T05:46:13.565Z,1009.08
2016-09-18T05:46:54.245Z,1009.13
2016-09-18T05:47:34.931Z,1009.09
2016-09-18T05:48:15.607Z,1009.09
2016-09-18T05:48:56.253Z,1009.13
2016-09-18T05:49:36.944Z,1009.11
2016-09-18T05:50:17.678Z,1009.14
2016-09-18T05:50:58.352Z,1009.16
2016-09-18T05:51:39.020Z,1009.14
2016-09-18T05:52:19.708Z,1009.14
2016-09-18T05:53:00.400Z,1009.15
2016-09-18T05:53:41.090Z,1009.14
2016-09-18T05:54:21.757Z,1009.14
2016-09-18T05:55:02.455Z,1009.12
2016-09-18T05:55:43.161Z,1009.15
2016-09-18T05:56:23.825Z,1009.16
2016-09-18T05:57:04.562Z,1009.17
2016-09-18T05:57:45.249Z,1009.2
2016-09-18T05:58:25.974Z,1009.21
2016-09-18T05:59:06.671Z,1009.24
2016-09-18T05:59:47.304Z,1009.23
2016-09-18T06:00:27.977Z,1009.23
2016-09-18T06:01:08.663Z,1009.26
2016-09-18T06:01:49.321Z,1009.25
2016-09-18T06:02:29.986Z,1009.27
2016-09-18T06:03:10.627Z,1009.26
2016-09-18T06:03:51.312Z,1009.27
2016-09-18T06:04:32.016Z,1009.28
2016-09-18T06:05:12.656Z,1009.29
2016-09-18T06:05:53.324Z,1009.27
2016-09-18T06:06:33.992Z,1009.31
2016-09-18T06:07:14.679Z,1009.26
2016-09-18T06:07:55.339Z,1009.28
2016-09-18T06:08:36.038Z,1009.28
2016-09-18T06:09:16.717Z,1009.29
2016-09-18T06:09:57.411Z,1009.28
2016-09-18T06:10:38.054Z,1009.28
2016-09-18T06:11:18.673Z,1009.3
2016-09-18T06:11:59.411Z,1009.32
2016-09-18T06:12:40.038Z,1009.31
2016-09-18T06:13:20.736Z,1009.36
2016-09-18T06:14:01.421Z,1009.35
2016-09-18T06:14:42.085Z,1009.36
2016-09-18T06:15:22.810Z,1009.42
2016-09-18T06:16:03.504Z,1009.39
2016-09-18T06:16:44.220Z,1009.45
2016-09-18T06:17:24.905Z,1009.46
2016-09-18T06:18:05.581Z,1009.46
2016-09-18T06:18:46.193Z,1009.44
2016-09-18T06:19:26.901Z,1009.44
2016-09-18T06:20:07.586Z,1009.43
2016-09-18T06:20:48.238Z,1009.45
2016-09-18T06:21:28.934Z,1009.46
2016-09-18T06:22:09.648Z,1009.49
2016-09-18T06:22:50.345Z,1009.48
2016-09-18T06:23:31.078Z,1009.51
2016-09-18T06:24:11.751Z,1009.51
2016-09-18T06:24:52.421Z,1009.51
2016-09-18T06:25:33.061Z,1009.52
2016-09-18T06:26:13.723Z,1009.53
2016-09-18T06:26:54.402Z,1009.55
2016-09-18T06:27:35.057Z,1009.55
2016-09-18T06:28:15.778Z,1009.51
2016-09-18T06:28:56.462Z,1009.55
2016-09-18T06:29:37.143Z,1009.56
2016-09-18T06:30:17.807Z,1009.54
2016-09-18T06:30:58.538Z,1009.6
2016-09-18T06:31:39.209Z,1009.58
2016-09-18T06:32:19.863Z,1009.59
2016-09-18T06:33:00.567Z,1009.59
2016-09-18T06:33:41.224Z,1009.58
2016-09-18T06:34:21.905Z,1009.61
2016-09-18T06:35:02.552Z,1009.59
2016-09-18T06:35:43.226Z,1009.58
2016-09-18T06:36:23.929Z,1009.57
2016-09-18T06:37:04.589Z,1009.59
2016-09-18T06:37:45.273Z,1009.59
2016-09-18T06:38:25.899Z,1009.62
2016-09-18T06:39:06.538Z,1009.6
2016-09-18T06:39:47.202Z,1009.64
2016-09-18T06:40:27.886Z,1009.6
2016-09-18T06:41:08.594Z,1009.59
2016-09-18T06:41:49.291Z,1009.64
2016-09-18T06:42:29.973Z,1009.63
2016-09-18T06:43:10.682Z,1009.64
2016-09-18T06:43:51.328Z,1009.62
2016-09-18T06:44:32.038Z,1009.64
2016-09-18T06:45:12.747Z,1009.63
2016-09-18T06:45:53.426Z,1009.65
2016-09-18T06:46:34.083Z,1009.61
2016-09-18T06:47:14.739Z,1009.58
2016-09-18T06:47:55.442Z,1009.59
2016-09-18T06:48:36.150Z,1009.64
2016-09-18T06:49:16.809Z,1009.62
2016-09-18T06:49:57.490Z,1009.64
2016-09-18T06:50:38.194Z,1009.67
2016-09-18T06:51:18.893Z,1009.7
2016-09-18T06:51:59.593Z,1009.66
2016-09-18T06:52:40.229Z,1009.64
2016-09-18T06:53:20.942Z,1009.65
2016-09-18T06:54:01.615Z,1009.64
2016-09-18T06:54:42.369Z,1009.67
2016-09-18T06:55:23.035Z,1009.69
2016-09-18T06:56:03.736Z,1009.7
2016-09-18T06:56:44.431Z,1009.65
2016-09-18T06:57:25.123Z,1009.66
2016-09-18T06:58:05.725Z,1009.69
2016-09-18T06:58:46.403Z,1009.58
2016-09-18T06:59:27.075Z,1009.55
2016-09-18T07:00:07.786Z,1009.55
2016-09-18T07:00:48.449Z,1009.53
2016-09-18T07:01:29.129Z,1009.48
2016-09-18T07:02:09.828Z,1009.5
2016-09-18T07:02:50.530Z,1009.47
2016-09-18T07:03:31.198Z,1009.43
2016-09-18T07:04:11.879Z,1009.42
2016-09-18T07:04:52.587Z,1009.42
2016-09-18T07:05:33.281Z,1009.4
2016-09-18T07:06:13.975Z,1009.4
2016-09-18T07:06:54.610Z,1009.42
2016-09-18T07:07:35.301Z,1009.4
2016-09-18T07:08:15.952Z,1009.42
2016-09-18T07:08:56.646Z,1009.42
2016-09-18T07:09:37.339Z,1009.46
2016-09-18T07:10:18.008Z,1009.49
2016-09-18T07:10:58.694Z,1009.54
2016-09-18T07:11:39.353Z,1009.55
2016-09-18T07:12:20.051Z,1009.56
2016-09-18T07:13:00.756Z,1009.57
2016-09-18T07:13:41.411Z,1009.56
2016-09-18T07:14:22.091Z,1009.57
2016-09-18T07:15:02.755Z,1009.59
2016-09-18T07:15:43.455Z,1009.58
2016-09-18T07:16:24.136Z,1009.65
2016-09-18T07:17:04.866Z,1009.61
2016-09-18T07:17:45.532Z,1009.57
2016-09-18T07:18:26.214Z,1009.59
2016-09-18T07:19:06.884Z,1009.63
2016-09-18T07:19:47.548Z,1009.61
2016-09-18T07:20:28.222Z,1009.68
2016-09-18T07:21:08.893Z,1009.64
2016-09-18T07:21:49.573Z,1009.63
2016-09-18T07:22:30.241Z,1009.63
2016-09-18T07:23:10.919Z,1009.59
2016-09-18T07:23:51.639Z,1009.57
2016-09-18T07:24:32.270Z,1009.53
2016-09-18T07:25:12.953Z,1009.52
2016-09-18T07:25:53.615Z,1009.51
2016-09-18T07:26:34.266Z,1009.49
2016-09-18T07:27:14.986Z,1009.48
2016-09-18T07:27:55.627Z,1009.48
2016-09-18T07:28:36.333Z,1009.45
2016-09-18T07:29:17.006Z,1009.49
2016-09-18T07:29:57.680Z,1009.42
2016-09-18T07:30:38.363Z,1009.43
2016-09-18T07:31:19.075Z,1009.42
2016-09-18T07:31:59.723Z,1009.41
2016-09-18T07:32:40.378Z,1009.38
2016-09-18T07:33:21.040Z,1009.44
2016-09-18T07:34:01.735Z,1009.47
2016-09-18T07:34:42.386Z,1009.44
2016-09-18T07:35:23.046Z,1009.48
2016-09-18T07:36:03.729Z,1009.48
2016-09-18T07:36:44.450Z,1009.46
2016-09-18T07:37:25.134Z,1009.49
2016-09-18T07:38:05.818Z,1009.48
2016-09-18T07:38:46.504Z,1009.52
2016-09-18T07:39:27.141Z,1009.51
2016-09-18T07:40:07.834Z,1009.51
2016-09-18T07:40:48.510Z,1009.55
2016-09-18T07:41:29.208Z,1009.6
2016-09-18T07:42:09.872Z,1009.6
2016-09-18T07:42:50.550Z,1009.59
2016-09-18T07:43:31.266Z,1009.61
2016-09-18T07:44:11.900Z,1009.57
2016-09-18T07:44:52.585Z,1009.59
2016-09-18T07:45:33.270Z,1009.62
2016-09-18T07:46:13.924Z,1009.6
2016-09-18T07:46:54.610Z,1009.59
2016-09-18T07:47:35.296Z,1009.6
2016-09-18T07:48:16.023Z,1009.62
2016-09-18T07:48:56.733Z,1009.6
2016-09-18T07:49:37.414Z,1009.63
2016-09-18T07:50:18.100Z,1009.65
2016-09-18T07:50:58.793Z,1009.63
2016-09-18T07:51:39.498Z,1009.66
2016-09-18T07:52:20.214Z,1009.66
2016-09-18T07:53:00.893Z,1009.65
2016-09-18T07:53:41.561Z,1009.64
2016-09-18T07:54:22.203Z,1009.65
2016-09-18T07:55:02.867Z,1009.67
2016-09-18T07:55:43.538Z,1009.68
2016-09-18T07:56:24.269Z,1009.69
2016-09-18T07:57:04.976Z,1009.66
2016-09-18T07:57:45.609Z,1009.62
2016-09-18T07:58:26.330Z,1009.63
2016-09-18T07:59:07.036Z,1009.62
2016-09-18T07:59:47.740Z,1009.59
2016-09-18T08:00:29.051Z,1009.65
2016-09-18T08:01:09.728Z,1009.62
2016-09-18T08:01:50.418Z,1009.63
2016-09-18T08:02:31.123Z,1009.6
2016-09-18T08:03:11.818Z,1009.61
2016-09-18T08:03:52.563Z,1009.6
2016-09-18T08:04:33.245Z,1009.59
2016-09-18T08:05:13.882Z,1009.59
2016-09-18T08:05:54.553Z,1009.57
2016-09-18T08:06:35.274Z,1009.59
2016-09-18T08:07:15.952Z,1009.6
2016-09-18T08:07:56.622Z,1009.56
2016-09-18T08:08:37.310Z,1009.54
2016-09-18T08:09:17.999Z,1009.57
2016-09-18T08:09:58.663Z,1009.57
2016-09-18T08:10:39.350Z,1009.6
2016-09-18T08:11:20.018Z,1009.54
2016-09-18T08:12:00.742Z,1009.59
2016-09-18T08:12:41.433Z,1009.59
2016-09-18T08:13:22.096Z,1009.61
2016-09-18T08:14:02.783Z,1009.62